Аэропорт: Белгород . Белгород

ICAO: UUOB

METAR:
2021-04-21 21:30:00
UUOB 212130Z 19002MPS CAVOK 06/04 Q1016 R11/190057 NOSIG
METAR:
Информация по данной станции не доступна